Time;durP1;ratioP1;P1;durP2;ratioP2;P2;SDS_P1;SDS_P2;PMS_P1;PMS_P2;Temp;Humidity;BMP_temperature;BMP_pressure;BME280_temperature;BME280_humidity;BME280_pressure;Samples;Min_cycle;Max_cycle;Signal;HPM_P1;HPM_P2
2023/04/25 00:00:34;;;;;;;25.30;7.03;;;6.70;99.90;;;;;;7368650;19;20023;-61
2023/04/25 00:03:00;;;;;;;19.92;5.47;;;6.70;99.90;;;;;;7370470;19;20060;-61
2023/04/25 00:05:27;;;;;;;14.43;4.60;;;6.70;99.90;;;;;;7367796;19;20022;-61
2023/04/25 00:07:53;;;;;;;28.02;6.75;;;6.60;99.90;;;;;;7372719;19;20034;-61
2023/04/25 00:10:20;;;;;;;27.45;6.43;;;6.50;99.90;;;;;;7368183;19;20022;-61
2023/04/25 00:12:47;;;;;;;29.95;6.40;;;6.50;99.90;;;;;;7368918;19;20030;-61
2023/04/25 00:15:14;;;;;;;26.17;6.63;;;6.40;99.90;;;;;;7367241;19;20022;-61
2023/04/25 00:17:40;;;;;;;21.90;6.82;;;6.30;99.90;;;;;;7367762;19;20019;-60
2023/04/25 00:20:09;;;;;;;26.50;6.28;;;6.20;99.90;;;;;;7369933;19;20018;-60
2023/04/25 00:22:37;;;;;;;24.33;6.57;;;6.20;99.90;;;;;;7368112;19;20023;-60
2023/04/25 00:25:06;;;;;;;18.55;5.70;;;6.10;99.90;;;;;;7367369;19;20026;-61
2023/04/25 00:27:33;;;;;;;23.17;6.60;;;6.00;99.90;;;;;;7367772;19;20029;-61
2023/04/25 00:30:00;;;;;;;19.50;6.30;;;6.00;99.90;;;;;;7372738;19;20018;-60
2023/04/25 00:32:26;;;;;;;30.48;6.57;;;5.90;99.90;;;;;;7367229;19;20679;-61
2023/04/25 00:34:52;;;;;;;25.13;6.15;;;5.90;99.90;;;;;;7366262;19;20011;-61
2023/04/25 00:37:19;;;;;;;19.42;6.80;;;5.90;99.90;;;;;;7368213;19;20127;-61
2023/04/25 00:39:46;;;;;;;21.27;6.70;;;5.90;99.90;;;;;;7370031;19;20022;-61
2023/04/25 00:42:15;;;;;;;23.42;6.50;;;5.90;99.90;;;;;;7367656;19;20384;-61
2023/04/25 00:44:41;;;;;;;22.75;6.00;;;5.80;99.90;;;;;;7365635;19;20670;-61
2023/04/25 00:47:08;;;;;;;29.52;6.47;;;5.80;99.90;;;;;;7366945;19;20018;-61
2023/04/25 00:49:34;;;;;;;20.90;6.28;;;5.70;99.90;;;;;;7368416;19;20015;-61
2023/04/25 00:52:01;;;;;;;28.48;6.28;;;5.70;99.90;;;;;;7368180;19;20503;-60
2023/04/25 00:54:27;;;;;;;22.90;5.80;;;5.70;99.90;;;;;;7362086;19;20019;-61
2023/04/25 00:56:53;;;;;;;25.48;6.53;;;5.80;99.90;;;;;;7373146;19;20450;-61
2023/04/25 00:59:20;;;;;;;22.70;5.85;;;5.90;99.90;;;;;;7372985;19;20018;-61
2023/04/25 01:01:47;;;;;;;21.17;6.43;;;5.90;99.90;;;;;;7375508;19;20022;-61
2023/04/25 01:04:13;;;;;;;21.60;6.45;;;5.90;99.90;;;;;;7375991;19;20706;-61
2023/04/25 01:06:40;;;;;;;20.15;6.72;;;5.90;99.90;;;;;;7375333;19;20592;-60
2023/04/25 01:09:07;;;;;;;24.60;6.10;;;6.00;99.90;;;;;;7376785;19;20692;-61
2023/04/25 01:11:33;;;;;;;21.35;5.82;;;6.00;99.90;;;;;;7374581;19;20932;-61
2023/04/25 01:14:01;;;;;;;20.63;6.25;;;6.00;99.90;;;;;;7375470;19;20943;-61
2023/04/25 01:16:28;;;;;;;16.38;6.32;;;5.90;99.90;;;;;;7377220;19;20091;-61
2023/04/25 01:18:54;;;;;;;23.70;5.72;;;5.80;99.90;;;;;;7373290;19;20031;-61
2023/04/25 01:21:21;;;;;;;18.63;6.50;;;5.80;99.90;;;;;;7374464;19;20061;-61
2023/04/25 01:23:48;;;;;;;23.50;6.53;;;5.70;99.90;;;;;;7377508;19;20447;-61
2023/04/25 01:26:15;;;;;;;20.42;6.38;;;5.60;99.90;;;;;;7374461;19;20024;-61
2023/04/25 01:28:42;;;;;;;16.65;6.57;;;5.60;99.90;;;;;;7375822;19;20022;-60
2023/04/25 01:31:09;;;;;;;17.33;6.50;;;5.60;99.90;;;;;;7373002;19;20022;-61
2023/04/25 01:33:35;;;;;;;21.95;6.60;;;5.50;99.90;;;;;;7372793;19;20614;-60
2023/04/25 01:36:02;;;;;;;20.48;6.65;;;5.50;99.90;;;;;;7375301;19;20022;-61
2023/04/25 01:38:29;;;;;;;24.63;6.72;;;5.50;99.90;;;;;;7375025;19;20809;-61
2023/04/25 01:40:56;;;;;;;22.08;5.72;;;5.50;99.90;;;;;;7373896;19;20108;-61
2023/04/25 01:43:22;;;;;;;28.17;6.22;;;5.40;99.90;;;;;;7373984;19;20805;-60
2023/04/25 01:45:50;;;;;;;22.70;5.47;;;5.40;99.90;;;;;;7376294;19;20789;-61
2023/04/25 01:48:19;;;;;;;17.88;6.55;;;5.50;99.90;;;;;;7377386;19;20060;-61
2023/04/25 01:50:47;;;;;;;22.23;6.40;;;5.50;99.90;;;;;;7373394;19;20470;-60
2023/04/25 01:53:14;;;;;;;25.70;6.60;;;5.50;99.90;;;;;;7375404;19;20018;-61
2023/04/25 01:55:42;;;;;;;23.00;6.47;;;5.60;99.90;;;;;;7372880;19;20585;-61
2023/04/25 01:58:12;;;;;;;20.88;6.35;;;5.60;99.90;;;;;;7376226;19;20026;-61
2023/04/25 02:00:57;;;;;;;23.98;6.15;;;5.60;99.90;;;;;;7374452;19;20018;-62
2023/04/25 02:03:34;;;;;;;20.33;6.47;;;5.70;99.90;;;;;;7341397;19;20910;-61
2023/04/25 02:06:16;;;;;;;21.33;6.03;;;5.70;99.90;;;;;;7273270;19;20029;-62
2023/04/25 02:08:46;;;;;;;21.70;5.72;;;5.70;99.90;;;;;;7372234;19;20915;-61
2023/04/25 02:11:13;;;;;;;25.85;5.60;;;5.70;99.90;;;;;;7374810;19;20007;-61
2023/04/25 02:13:49;;;;;;;22.20;5.90;;;5.70;99.90;;;;;;7372445;19;20019;-61
2023/04/25 02:16:39;;;;;;;24.20;6.80;;;5.70;99.90;;;;;;7372376;19;20019;-61
2023/04/25 02:19:07;;;;;;;20.13;5.68;;;5.70;99.90;;;;;;7372533;19;20025;-61
2023/04/25 02:21:35;;;;;;;20.55;4.88;;;5.80;99.90;;;;;;7373211;19;20055;-61
2023/04/25 02:24:02;;;;;;;21.83;5.18;;;5.80;99.90;;;;;;7375120;19;21039;-61
2023/04/25 02:26:29;;;;;;;22.42;6.15;;;5.80;99.90;;;;;;7371493;19;20018;-61
2023/04/25 02:28:57;;;;;;;20.30;5.00;;;5.80;99.90;;;;;;7373925;19;20386;-61
2023/04/25 02:31:23;;;;;;;19.80;4.78;;;5.80;99.90;;;;;;7371274;19;20018;-61
2023/04/25 02:33:51;;;;;;;18.13;5.03;;;5.80;99.90;;;;;;7371771;19;20022;-61
2023/04/25 02:36:17;;;;;;;19.40;5.03;;;5.80;99.90;;;;;;7373850;19;20018;-62
2023/04/25 02:38:44;;;;;;;20.85;5.13;;;5.80;99.90;;;;;;7375594;19;20014;-61
2023/04/25 02:41:10;;;;;;;17.60;4.55;;;5.80;99.90;;;;;;7374228;19;20026;-61
2023/04/25 02:43:37;;;;;;;19.55;4.45;;;5.70;99.90;;;;;;7373343;19;20023;-61
2023/04/25 02:46:03;;;;;;;14.07;3.85;;;5.70;99.90;;;;;;7370924;19;20018;-61
2023/04/25 02:48:29;;;;;;;17.17;4.85;;;5.70;99.90;;;;;;7371303;19;20018;-61
2023/04/25 02:50:55;;;;;;;18.45;4.85;;;5.70;99.90;;;;;;7371382;19;20040;-62
2023/04/25 02:53:22;;;;;;;23.42;4.28;;;5.70;99.90;;;;;;7370463;19;20022;-61
2023/04/25 02:55:52;;;;;;;17.83;4.00;;;5.70;99.90;;;;;;7370030;19;20387;-61
2023/04/25 02:58:18;;;;;;;16.67;3.95;;;5.70;99.90;;;;;;7372091;19;20019;-61
2023/04/25 03:00:50;;;;;;;21.35;4.43;;;5.70;99.90;;;;;;7374266;19;20778;-61
2023/04/25 03:03:17;;;;;;;15.88;3.97;;;5.70;99.90;;;;;;7371664;19;20014;-61
2023/04/25 03:05:46;;;;;;;22.17;4.45;;;5.70;99.90;;;;;;7370612;19;20023;-61
2023/04/25 03:08:12;;;;;;;19.58;3.47;;;5.70;99.90;;;;;;7372989;19;20022;-61
2023/04/25 03:10:39;;;;;;;21.95;4.10;;;5.60;99.90;;;;;;7371894;19;20022;-61
2023/04/25 03:13:08;;;;;;;18.67;4.72;;;5.60;99.90;;;;;;7371250;19;20726;-61
2023/04/25 03:15:35;;;;;;;17.80;4.07;;;5.60;99.90;;;;;;7369479;19;20029;-61
2023/04/25 03:18:01;;;;;;;17.88;4.07;;;5.60;99.90;;;;;;7373531;19;20014;-61
2023/04/25 03:20:28;;;;;;;20.52;4.35;;;5.50;99.90;;;;;;7371136;19;20098;-61
2023/04/25 03:22:54;;;;;;;14.02;3.30;;;5.50;99.90;;;;;;7372195;19;20039;-61
2023/04/25 03:25:20;;;;;;;17.83;3.65;;;5.50;99.90;;;;;;7369360;19;20046;-61
2023/04/25 03:27:47;;;;;;;18.92;3.75;;;5.50;99.90;;;;;;7371792;19;20029;-61
2023/04/25 03:30:13;;;;;;;17.90;3.60;;;5.50;99.90;;;;;;7372331;19;20025;-61
2023/04/25 03:32:41;;;;;;;13.05;3.20;;;5.50;99.90;;;;;;7369955;19;20050;-62
2023/04/25 03:35:08;;;;;;;13.43;4.05;;;5.50;99.90;;;;;;7371791;19;20022;-61
2023/04/25 03:37:34;;;;;;;16.38;3.53;;;5.50;99.90;;;;;;7369446;19;20018;-61
2023/04/25 03:40:02;;;;;;;17.90;3.55;;;5.40;99.90;;;;;;7371544;19;20081;-61
2023/04/25 03:42:48;;;;;;;17.92;3.38;;;5.40;99.90;;;;;;7373618;19;20033;-61
2023/04/25 03:45:14;;;;;;;14.45;3.08;;;5.30;99.90;;;;;;7370470;19;20022;-61
2023/04/25 03:47:41;;;;;;;10.15;2.92;;;5.30;99.90;;;;;;7367121;19;20014;-61
2023/04/25 03:50:07;;;;;;;8.48;2.92;;;5.20;99.90;;;;;;7372117;19;20015;-61
2023/04/25 03:52:33;;;;;;;12.07;2.65;;;5.20;99.90;;;;;;7372594;19;20033;-61
2023/04/25 03:55:00;;;;;;;9.88;2.63;;;5.20;99.90;;;;;;7369304;19;20014;-61
2023/04/25 03:57:26;;;;;;;12.82;2.72;;;5.20;99.90;;;;;;7371321;19;20041;-61
2023/04/25 03:59:53;;;;;;;7.28;2.00;;;5.20;99.90;;;;;;7372776;19;20041;-61
2023/04/25 04:02:19;;;;;;;9.63;2.08;;;5.10;99.90;;;;;;7373014;19;20044;-61
2023/04/25 04:04:46;;;;;;;4.75;1.88;;;5.10;99.90;;;;;;7370675;19;20022;-61
2023/04/25 04:07:13;;;;;;;7.05;2.05;;;5.10;99.90;;;;;;7371804;19;20367;-61
2023/04/25 04:09:42;;;;;;;8.80;2.13;;;5.10;99.90;;;;;;7371387;19;20026;-61
2023/04/25 04:12:13;;;;;;;9.25;2.08;;;5.10;99.90;;;;;;7375047;19;20014;-61
2023/04/25 04:14:41;;;;;;;9.93;2.08;;;5.10;99.90;;;;;;7369681;19;20057;-61
2023/04/25 04:17:07;;;;;;;6.03;2.10;;;5.00;99.90;;;;;;7371506;19;20025;-62
2023/04/25 04:19:33;;;;;;;8.82;2.10;;;5.00;99.90;;;;;;7369420;19;20026;-62
2023/04/25 04:22:19;;;;;;;8.82;2.70;;;5.00;99.90;;;;;;7371765;19;20023;-61
2023/04/25 04:24:47;;;;;;;4.45;1.90;;;5.00;99.90;;;;;;7365772;19;20424;-61
2023/04/25 04:27:19;;;;;;;8.15;2.22;;;5.00;99.90;;;;;;7369088;19;20049;-62
2023/04/25 04:29:53;;;;;;;6.63;2.20;;;5.00;99.90;;;;;;7368532;19;20046;-62
2023/04/25 04:32:27;;;;;;;10.20;2.42;;;5.00;99.90;;;;;;7376698;19;20838;-62
2023/04/25 04:34:55;;;;;;;7.57;2.25;;;5.00;99.90;;;;;;7375101;19;20034;-62
2023/04/25 04:37:23;;;;;;;7.65;2.10;;;5.00;99.90;;;;;;7378669;19;20070;-61
2023/04/25 04:39:51;;;;;;;9.38;2.72;;;5.00;99.90;;;;;;7377163;19;20035;-61
2023/04/25 04:42:41;;;;;;;7.95;2.35;;;5.10;99.90;;;;;;7376779;19;20712;-62
2023/04/25 04:45:27;;;;;;;7.85;2.40;;;5.10;99.90;;;;;;7378506;19;20018;-62
2023/04/25 04:48:13;;;;;;;8.50;2.03;;;5.10;99.90;;;;;;7376030;19;20026;-61
2023/04/25 04:50:56;;;;;;;11.80;2.60;;;5.10;99.90;;;;;;7372821;19;20370;-62
2023/04/25 04:53:40;;;;;;;7.07;2.15;;;5.20;99.90;;;;;;7374336;19;20478;-62
2023/04/25 04:56:33;;;;;;;9.32;2.75;;;5.30;99.90;;;;;;7375347;19;20580;-62
2023/04/25 04:59:18;;;;;;;8.93;2.50;;;5.30;99.90;;;;;;7376017;19;20046;-61
2023/04/25 05:02:04;;;;;;;8.05;2.53;;;5.20;99.90;;;;;;7373703;19;20019;-62
2023/04/25 05:04:56;;;;;;;10.75;2.70;;;5.30;99.90;;;;;;7374626;19;20056;-61
2023/04/25 05:08:01;;;;;;;10.48;2.70;;;5.30;99.90;;;;;;7373455;19;20821;-61
2023/04/25 05:10:42;;;;;;;10.45;2.20;;;5.20;99.90;;;;;;7371276;19;20014;-61
2023/04/25 05:13:19;;;;;;;12.02;3.00;;;5.20;99.90;;;;;;7375072;19;20014;-62
2023/04/25 05:16:06;;;;;;;9.77;2.83;;;5.20;99.90;;;;;;7370866;19;20868;-61
2023/04/25 05:18:52;;;;;;;11.75;2.58;;;5.30;99.90;;;;;;7380041;19;20528;-61
2023/04/25 05:21:28;;;;;;;9.85;2.65;;;5.40;99.90;;;;;;7377325;19;20053;-61
2023/04/25 05:24:23;;;;;;;12.15;2.78;;;5.50;99.90;;;;;;7377194;19;20018;-61
2023/04/25 05:27:07;;;;;;;12.05;2.40;;;5.60;99.90;;;;;;7378479;19;20022;-61
2023/04/25 05:29:45;;;;;;;10.77;2.67;;;5.70;99.90;;;;;;7375640;19;20377;-61
2023/04/25 05:32:22;;;;;;;11.13;2.42;;;5.80;99.90;;;;;;7377490;19;20608;-61
2023/04/25 05:34:49;;;;;;;14.68;2.83;;;6.00;99.90;;;;;;7374646;19;20370;-61
2023/04/25 05:37:28;;;;;;;11.98;2.72;;;6.00;99.90;;;;;;7374654;19;20022;-61
2023/04/25 05:40:11;;;;;;;12.13;2.70;;;6.00;99.90;;;;;;7379491;19;20014;-62
2023/04/25 05:42:55;;;;;;;13.30;2.65;;;6.10;99.90;;;;;;7376054;19;20491;-62
2023/04/25 05:45:27;;;;;;;9.25;2.75;;;6.10;99.90;;;;;;7373905;19;20081;-61
2023/04/25 05:48:05;;;;;;;11.35;2.50;;;6.30;99.90;;;;;;7375488;19;20493;-61
2023/04/25 05:50:57;;;;;;;10.55;2.50;;;6.60;99.90;;;;;;7370049;19;21650;-63
2023/04/25 05:53:40;;;;;;;11.73;3.15;;;6.60;99.90;;;;;;7373356;19;20015;-61
2023/04/25 05:56:06;;;;;;;12.27;2.75;;;6.60;99.90;;;;;;7374441;19;20054;-61
2023/04/25 05:58:33;;;;;;;9.43;3.00;;;6.70;99.90;;;;;;7377401;19;20030;-61
2023/04/25 06:01:01;;;;;;;10.75;2.67;;;6.60;99.90;;;;;;7375273;19;20014;-61
2023/04/25 06:03:28;;;;;;;11.90;2.70;;;6.60;99.90;;;;;;7374855;19;20019;-62
2023/04/25 06:05:57;;;;;;;13.82;2.80;;;6.70;99.90;;;;;;7374000;19;20829;-61
2023/04/25 06:08:26;;;;;;;13.00;4.15;;;6.80;99.90;;;;;;7375459;19;20018;-62
2023/04/25 06:10:52;;;;;;;10.05;3.33;;;6.70;99.90;;;;;;7375624;19;20039;-62
2023/04/25 06:13:18;;;;;;;13.18;2.65;;;6.70;99.90;;;;;;7377521;19;20018;-62
2023/04/25 06:15:45;;;;;;;14.23;3.15;;;6.70;99.90;;;;;;7374211;19;20019;-62
2023/04/25 06:18:12;;;;;;;12.35;2.78;;;6.60;99.90;;;;;;7377086;19;20021;-61
2023/04/25 06:20:38;;;;;;;13.38;2.72;;;6.70;99.90;;;;;;7373932;19;20507;-62
2023/04/25 06:23:05;;;;;;;12.15;2.50;;;6.80;99.90;;;;;;7374399;19;20018;-62
2023/04/25 06:25:51;;;;;;;12.10;2.45;;;6.80;99.90;;;;;;7372341;19;20031;-62
2023/04/25 06:28:19;;;;;;;12.65;3.10;;;6.80;99.90;;;;;;7375212;19;20479;-62
2023/04/25 06:30:45;;;;;;;11.43;2.40;;;6.70;99.90;;;;;;7377217;19;20090;-62
2023/04/25 06:33:16;;;;;;;12.88;3.05;;;6.80;99.90;;;;;;7375698;19;20026;-62
2023/04/25 06:35:43;;;;;;;11.68;2.67;;;6.80;99.90;;;;;;7375730;19;20045;-62
2023/04/25 06:38:12;;;;;;;9.50;2.03;;;6.90;99.90;;;;;;7375535;19;20018;-62
2023/04/25 06:40:40;;;;;;;8.52;2.20;;;6.80;99.90;;;;;;7376846;19;20018;-62
2023/04/25 06:43:09;;;;;;;10.05;2.55;;;7.00;99.90;;;;;;7374668;19;20011;-62
2023/04/25 06:45:50;;;;;;;12.82;2.50;;;7.30;99.90;;;;;;7376367;19;20026;-63
2023/04/25 06:48:17;;;;;;;12.18;2.47;;;7.60;99.90;;;;;;7373349;19;20021;-62
2023/04/25 06:50:44;;;;;;;10.48;2.40;;;7.70;99.90;;;;;;7371483;19;20015;-62
2023/04/25 06:53:11;;;;;;;6.32;2.25;;;8.00;99.90;;;;;;7371413;19;20039;-62
2023/04/25 06:55:38;;;;;;;8.55;1.75;;;8.20;99.90;;;;;;7367589;19;20576;-62
2023/04/25 06:58:13;;;;;;;11.23;2.40;;;8.60;99.90;;;;;;7375360;19;20035;-63
2023/04/25 07:01:15;;;;;;;9.23;2.33;;;8.50;99.90;;;;;;7372420;19;20485;-63
2023/04/25 07:03:48;;;;;;;18.60;5.72;;;8.60;99.90;;;;;;7372234;19;20046;-63
2023/04/25 07:06:17;;;;;;;11.15;2.38;;;8.40;99.90;;;;;;7372367;19;20040;-63
2023/04/25 07:08:45;;;;;;;7.50;2.30;;;8.10;99.90;;;;;;7373069;19;20014;-62
2023/04/25 07:11:12;;;;;;;10.63;2.63;;;8.20;99.90;;;;;;7373548;19;20139;-63
2023/04/25 07:13:39;;;;;;;6.90;2.13;;;8.30;99.90;;;;;;7370676;19;20019;-62
2023/04/25 07:16:06;;;;;;;11.43;3.35;;;8.60;99.90;;;;;;7373476;19;20022;-62
2023/04/25 07:18:33;;;;;;;12.57;2.60;;;8.90;99.90;;;;;;7371460;19;20022;-62
2023/04/25 07:21:00;;;;;;;14.80;2.85;;;9.20;99.90;;;;;;7372404;19;20032;-61
2023/04/25 07:23:27;;;;;;;14.98;2.47;;;9.40;99.90;;;;;;7371592;19;20018;-62
2023/04/25 07:25:55;;;;;;;10.60;2.17;;;9.10;99.90;;;;;;7373582;19;20577;-61
2023/04/25 07:28:24;;;;;;;12.27;2.60;;;9.10;99.90;;;;;;7372770;19;20010;-62
2023/04/25 07:30:50;;;;;;;11.45;3.08;;;8.80;99.90;;;;;;7372776;19;20035;-62
2023/04/25 07:33:17;;;;;;;8.30;2.28;;;8.70;99.90;;;;;;7373523;19;20081;-61
2023/04/25 07:35:43;;;;;;;10.07;2.58;;;8.60;99.90;;;;;;7371043;19;20014;-61
2023/04/25 07:38:11;;;;;;;13.27;2.35;;;8.40;99.90;;;;;;7372105;19;20096;-63
2023/04/25 07:40:37;;;;;;;10.40;1.75;;;8.50;99.90;;;;;;7368934;19;20018;-61
2023/04/25 07:43:06;;;;;;;11.75;2.28;;;9.00;99.90;;;;;;7371840;19;20018;-61
2023/04/25 07:45:40;;;;;;;10.70;2.08;;;9.30;99.90;;;;;;7368818;19;20014;-61
2023/04/25 07:48:07;;;;;;;9.20;2.30;;;9.70;99.90;;;;;;7370870;19;20344;-61
2023/04/25 07:50:36;;;;;;;9.02;2.80;;;10.20;99.90;;;;;;7369753;19;20010;-62
2023/04/25 07:53:03;;;;;;;10.88;1.77;;;10.50;99.90;;;;;;7368506;19;20025;-62
2023/04/25 07:55:36;;;;;;;11.07;2.00;;;10.70;99.90;;;;;;7363343;19;20018;-62
2023/04/25 07:58:21;;;;;;;8.35;1.67;;;10.70;99.90;;;;;;7370279;19;20039;-62
2023/04/25 08:00:48;;;;;;;6.90;1.77;;;11.10;99.90;;;;;;7367251;19;20777;-62
2023/04/25 08:03:33;;;;;;;10.35;1.85;;;11.40;99.90;;;;;;7369483;19;20047;-62
2023/04/25 08:06:00;;;;;;;5.88;2.00;;;11.20;99.90;;;;;;7369546;19;20033;-62
2023/04/25 08:08:31;;;;;;;7.43;1.60;;;11.00;99.90;;;;;;7369121;19;20489;-62
2023/04/25 08:10:58;;;;;;;5.00;1.30;;;10.30;99.90;;;;;;7368625;19;20019;-62
2023/04/25 08:13:24;;;;;;;6.22;1.25;;;9.70;99.90;;;;;;7369835;19;20026;-62
2023/04/25 08:15:52;;;;;;;4.55;1.40;;;9.30;99.90;;;;;;7369076;19;20026;-62
2023/04/25 08:18:19;;;;;;;6.70;1.63;;;9.10;99.90;;;;;;7367494;19;20048;-62
2023/04/25 08:20:47;;;;;;;7.28;1.55;;;8.80;99.90;;;;;;7365437;19;20022;-62
2023/04/25 08:23:15;;;;;;;4.72;1.30;;;8.80;99.90;;;;;;7367056;19;20019;-62
2023/04/25 08:25:52;;;;;;;5.95;1.52;;;8.50;99.90;;;;;;7364501;19;20118;-65
2023/04/25 08:28:22;;;;;;;7.85;1.38;;;8.50;99.90;;;;;;7369686;19;20010;-64
2023/04/25 08:30:49;;;;;;;7.03;1.30;;;8.50;99.90;;;;;;7369454;19;20025;-65
2023/04/25 08:33:16;;;;;;;6.07;2.13;;;9.20;99.90;;;;;;7367464;19;20121;-65
2023/04/25 08:35:58;;;;;;;7.28;1.80;;;10.00;99.90;;;;;;7369284;19;20040;-66
2023/04/25 08:38:25;;;;;;;9.20;1.77;;;10.80;99.90;;;;;;7367979;19;20323;-64
2023/04/25 08:40:55;;;;;;;11.88;4.20;;;10.70;99.90;;;;;;7369810;19;20022;-63
2023/04/25 08:43:24;;;;;;;6.57;2.13;;;11.70;99.90;;;;;;7366571;19;20682;-62
2023/04/25 08:45:54;;;;;;;5.53;1.88;;;12.10;99.90;;;;;;7366510;19;20364;-63
2023/04/25 08:48:36;;;;;;;6.40;1.90;;;11.90;99.90;;;;;;7370674;19;20098;-65
2023/04/25 08:51:07;;;;;;;7.28;1.65;;;12.10;99.90;;;;;;7366878;19;20046;-62
2023/04/25 08:53:33;;;;;;;11.63;1.88;;;12.20;99.90;;;;;;7363534;19;20486;-62
2023/04/25 08:56:03;;;;;;;6.82;1.40;;;11.70;99.90;;;;;;7363269;19;20035;-62
2023/04/25 08:58:34;;;;;;;7.38;1.52;;;11.80;99.90;;;;;;7365398;19;20026;-62
2023/04/25 09:01:00;;;;;;;6.75;1.80;;;11.80;99.90;;;;;;7368003;19;20028;-62
2023/04/25 09:03:30;;;;;;;7.97;1.73;;;11.80;99.90;;;;;;7363320;19;20044;-64
2023/04/25 09:05:57;;;;;;;7.18;1.70;;;11.90;99.90;;;;;;7367262;19;20497;-62
2023/04/25 09:08:24;;;;;;;7.13;1.77;;;11.60;99.90;;;;;;7368336;19;20868;-62
2023/04/25 09:10:50;;;;;;;9.20;1.73;;;12.00;99.90;;;;;;7364965;19;20043;-62
2023/04/25 09:13:26;;;;;;;6.65;1.85;;;12.40;99.90;;;;;;7368617;19;20016;-62
2023/04/25 09:16:11;;;;;;;7.95;1.98;;;12.90;99.90;;;;;;7367732;19;20019;-66
2023/04/25 09:19:01;;;;;;;6.45;1.80;;;13.40;99.90;;;;;;7378700;19;20015;-66
2023/04/25 09:21:28;;;;;;;5.93;1.55;;;13.30;99.20;;;;;;7372446;19;20018;-66
2023/04/25 09:23:54;;;;;;;5.55;1.42;;;11.90;99.90;;;;;;7375269;19;20014;-64
2023/04/25 09:26:21;;;;;;;7.50;1.40;;;10.10;99.90;;;;;;7374308;19;20022;-62
2023/04/25 09:28:48;;;;;;;6.07;1.40;;;9.10;99.90;;;;;;7374669;19;20806;-64
2023/04/25 09:31:24;;;;;;;8.10;1.35;;;8.40;99.90;;;;;;7371662;19;20509;-64
2023/04/25 09:34:00;;;;;;;7.53;1.83;;;8.30;99.90;;;;;;7372991;19;20432;-64
2023/04/25 09:36:29;;;;;;;6.28;1.25;;;8.20;99.90;;;;;;7371949;19;20018;-64
2023/04/25 09:39:15;;;;;;;6.18;1.85;;;8.20;99.90;;;;;;7376454;19;20032;-64
2023/04/25 09:41:45;;;;;;;6.18;1.40;;;8.50;99.90;;;;;;7373268;19;20394;-64
2023/04/25 09:44:13;;;;;;;8.07;1.73;;;8.90;99.90;;;;;;7374854;19;20010;-61
2023/04/25 09:46:42;;;;;;;6.13;1.50;;;9.50;99.90;;;;;;7374287;19;20010;-61
2023/04/25 09:49:21;;;;;;;5.60;1.30;;;9.90;99.90;;;;;;7375566;19;20031;-61
2023/04/25 09:51:58;;;;;;;4.32;1.45;;;10.30;99.90;;;;;;7370266;19;20447;-62
2023/04/25 09:54:27;;;;;;;7.60;1.52;;;10.50;99.90;;;;;;7369691;19;20038;-62
2023/04/25 09:57:13;;;;;;;7.07;1.52;;;11.20;99.90;;;;;;7373157;19;20026;-61
2023/04/25 09:59:44;;;;;;;7.00;1.67;;;11.50;99.90;;;;;;7370038;19;20022;-62
2023/04/25 10:02:11;;;;;;;7.80;2.22;;;12.50;99.90;;;;;;7374765;19;20026;-62
2023/04/25 10:04:39;;;;;;;7.28;1.52;;;13.00;99.90;;;;;;7371957;19;20039;-64
2023/04/25 10:07:17;;;;;;;5.45;2.33;;;12.40;99.90;;;;;;7374439;19;20022;-62
2023/04/25 10:09:50;;;;;;;5.65;1.85;;;11.90;99.90;;;;;;7371660;19;20512;-62
2023/04/25 10:12:17;;;;;;;6.97;1.70;;;11.40;99.90;;;;;;7376354;19;20022;-61
2023/04/25 10:14:45;;;;;;;4.95;1.40;;;10.50;99.90;;;;;;7369213;19;20010;-64
2023/04/25 10:17:12;;;;;;;5.53;1.58;;;9.70;99.90;;;;;;7376948;19;20162;-64
2023/04/25 10:19:39;;;;;;;5.53;1.25;;;9.50;99.90;;;;;;7374366;19;20753;-64
2023/04/25 10:22:25;;;;;;;4.65;1.50;;;9.50;99.90;;;;;;7375786;19;20509;-63
2023/04/25 10:24:52;;;;;;;5.68;1.33;;;9.70;99.90;;;;;;7370441;19;20061;-64
2023/04/25 10:27:19;;;;;;;5.38;1.48;;;10.10;99.90;;;;;;7372710;19;20514;-65
2023/04/25 10:29:59;;;;;;;4.03;1.25;;;11.00;99.90;;;;;;7370148;19;20018;-65
2023/04/25 10:32:25;;;;;;;6.13;1.42;;;11.60;99.90;;;;;;7374803;19;20018;-64
2023/04/25 10:34:52;;;;;;;5.85;2.63;;;12.10;99.90;;;;;;7370798;19;20106;-65
2023/04/25 10:37:19;;;;;;;7.03;1.55;;;12.70;99.90;;;;;;7372963;19;20014;-62
2023/04/25 10:39:46;;;;;;;8.10;1.55;;;13.10;99.90;;;;;;7371611;19;20014;-62
2023/04/25 10:42:12;;;;;;;7.53;1.63;;;13.50;99.90;;;;;;7373840;19;20050;-65
2023/04/25 10:44:39;;;;;;;8.23;1.60;;;13.40;99.90;;;;;;7366929;19;20007;-63
2023/04/25 10:47:08;;;;;;;6.70;1.98;;;13.10;99.90;;;;;;7373036;19;20165;-60
2023/04/25 10:49:41;;;;;;;5.20;1.48;;;12.80;99.90;;;;;;7370980;19;20089;-60
2023/04/25 10:52:13;;;;;;;7.05;1.42;;;12.40;99.90;;;;;;7373320;19;20109;-63
2023/04/25 10:54:46;;;;;;;7.53;1.83;;;12.00;99.90;;;;;;7369968;19;20048;-63
2023/04/25 10:57:31;;;;;;;12.55;1.90;;;11.80;99.90;;;;;;7372358;19;20026;-63
2023/04/25 11:00:05;;;;;;;9.80;1.75;;;10.80;99.90;;;;;;7368326;19;20400;-60
2023/04/25 11:02:36;;;;;;;9.52;2.00;;;10.20;99.90;;;;;;7369765;19;20035;-60
2023/04/25 11:05:03;;;;;;;7.85;2.10;;;10.20;99.90;;;;;;7370426;19;20014;-61
2023/04/25 11:07:35;;;;;;;10.82;2.75;;;10.20;99.90;;;;;;7371235;19;20770;-64
2023/04/25 11:10:05;;;;;;;7.30;2.13;;;10.40;99.90;;;;;;7373646;19;20018;-64
2023/04/25 11:12:32;;;;;;;9.00;1.95;;;11.00;99.90;;;;;;7372413;19;20029;-65
2023/04/25 11:15:00;;;;;;;11.60;2.47;;;12.20;99.90;;;;;;7368084;19;20010;-65
2023/04/25 11:17:27;;;;;;;9.18;1.90;;;12.90;99.90;;;;;;7372496;19;20039;-64
2023/04/25 11:19:54;;;;;;;9.52;2.47;;;12.40;99.90;;;;;;7369873;19;21156;-62
2023/04/25 11:22:21;;;;;;;13.10;3.00;;;12.30;99.90;;;;;;7371268;19;20039;-62
2023/04/25 11:24:47;;;;;;;8.50;2.10;;;12.30;99.90;;;;;;7369436;19;20018;-65
2023/04/25 11:27:14;;;;;;;8.10;2.08;;;12.20;99.90;;;;;;7374785;19;20042;-62
2023/04/25 11:29:41;;;;;;;7.82;3.45;;;11.90;99.90;;;;;;7371030;19;20715;-65
2023/04/25 11:32:08;;;;;;;11.18;1.75;;;11.90;99.90;;;;;;7372458;19;20797;-65
2023/04/25 11:34:34;;;;;;;7.40;1.83;;;12.20;99.90;;;;;;7367012;19;20782;-62
2023/04/25 11:37:02;;;;;;;6.82;1.83;;;11.70;99.90;;;;;;7374240;19;20044;-61
2023/04/25 11:39:29;;;;;;;4.65;1.55;;;12.00;99.90;;;;;;7370392;19;20094;-65
2023/04/25 11:41:55;;;;;;;5.55;1.42;;;12.70;99.90;;;;;;7373109;19;20098;-65
2023/04/25 11:44:22;;;;;;;6.78;1.55;;;13.00;99.90;;;;;;7367702;19;20033;-65
2023/04/25 11:46:48;;;;;;;4.38;1.20;;;13.00;90.90;;;;;;7370274;19;20621;-65
2023/04/25 11:49:17;;;;;;;8.27;1.90;;;13.20;99.90;;;;;;7369755;19;20044;-61
2023/04/25 11:51:46;;;;;;;5.82;1.30;;;13.00;99.60;;;;;;7372629;19;20102;-62
2023/04/25 11:54:13;;;;;;;5.13;1.52;;;12.60;99.90;;;;;;7368649;19;20022;-61
2023/04/25 11:56:43;;;;;;;8.75;2.10;;;12.00;99.90;;;;;;7368838;19;20039;-62
2023/04/25 11:59:09;;;;;;;6.53;1.80;;;11.60;99.90;;;;;;7369144;19;20021;-65
2023/04/25 12:01:37;;;;;;;5.95;1.33;;;11.50;99.90;;;;;;7371889;19;20018;-61
2023/04/25 12:04:24;;;;;;;6.03;1.55;;;11.70;99.90;;;;;;7369379;19;20703;-62
2023/04/25 12:06:53;;;;;;;7.28;1.58;;;12.80;99.90;;;;;;7367592;19;20019;-63
2023/04/25 12:09:27;;;;;;;4.28;1.65;;;13.00;99.90;;;;;;7372481;19;20014;-65
2023/04/25 12:11:57;;;;;;;6.93;1.83;;;14.00;91.50;;;;;;7366501;19;20497;-62
2023/04/25 12:14:26;;;;;;;6.63;1.40;;;14.20;84.40;;;;;;7370469;19;20030;-65
2023/04/25 12:16:57;;;;;;;5.28;1.58;;;13.70;88.10;;;;;;7362519;19;20015;-61
2023/04/25 12:19:23;;;;;;;5.18;1.33;;;13.00;78.60;;;;;;7366996;19;20532;-62
2023/04/25 12:21:50;;;;;;;6.65;1.38;;;12.30;95.20;;;;;;7369247;19;20084;-61
2023/04/25 12:24:23;;;;;;;6.70;1.70;;;12.00;96.30;;;;;;7375215;19;20064;-62
2023/04/25 12:27:07;;;;;;;4.22;1.15;;;12.50;98.10;;;;;;7368780;19;20742;-62
2023/04/25 12:29:34;;;;;;;7.55;1.40;;;12.40;95.20;;;;;;7369420;19;20018;-61
2023/04/25 12:32:04;;;;;;;4.50;1.30;;;11.80;99.90;;;;;;7371180;19;20049;-65
2023/04/25 12:34:32;;;;;;;4.53;1.13;;;11.30;99.90;;;;;;7365719;19;20023;-62
2023/04/25 12:36:58;;;;;;;5.93;2.03;;;11.10;99.90;;;;;;7366326;19;20018;-61
2023/04/25 12:39:25;;;;;;;5.72;1.95;;;11.40;99.90;;;;;;7367271;19;20035;-61
2023/04/25 12:41:54;;;;;;;9.32;2.17;;;12.60;99.90;;;;;;7368560;19;20030;-62
2023/04/25 12:44:21;;;;;;;6.22;1.83;;;13.20;99.90;;;;;;7367220;19;20479;-62
2023/04/25 12:46:48;;;;;;;6.60;2.65;;;13.30;99.90;;;;;;7367780;19;20017;-61
2023/04/25 12:49:15;;;;;;;10.88;2.13;;;12.60;99.90;;;;;;7367963;19;20656;-65
2023/04/25 12:51:42;;;;;;;6.32;2.10;;;11.60;99.90;;;;;;7370495;19;20039;-64
2023/04/25 12:54:08;;;;;;;6.20;1.55;;;11.00;99.90;;;;;;7377208;19;20023;-61
2023/04/25 12:56:35;;;;;;;10.48;1.92;;;10.30;99.90;;;;;;7375649;19;20039;-65
2023/04/25 12:59:02;;;;;;;8.48;1.42;;;10.20;99.90;;;;;;7377115;19;21233;-64
2023/04/25 13:01:29;;;;;;;6.07;1.55;;;10.10;99.90;;;;;;7378521;19;20960;-62
2023/04/25 13:03:56;;;;;;;7.72;1.75;;;10.30;99.90;;;;;;7376716;19;20534;-61